sensor_id;sensor_type;location;lat;lon;timestamp;pressure;altitude;pressure_sealevel;temperature;humidity
34197;BME280;36594;45.192;5.722;2022-07-19T00:01:11;99273.81;;;32.49;29.97
34197;BME280;36594;45.192;5.722;2022-07-19T00:04:00;99274.64;;;32.52;30.03
34197;BME280;36594;45.192;5.722;2022-07-19T00:06:48;99279.03;;;32.55;30.06
34197;BME280;36594;45.192;5.722;2022-07-19T00:09:37;99276.77;;;32.57;30.11
34197;BME280;36594;45.192;5.722;2022-07-19T00:12:26;99277.53;;;32.60;30.08
34197;BME280;36594;45.192;5.722;2022-07-19T00:15:15;99279.34;;;32.67;29.94
34197;BME280;36594;45.192;5.722;2022-07-19T00:18:04;99274.61;;;32.68;29.96
34197;BME280;36594;45.192;5.722;2022-07-19T00:20:52;99276.83;;;32.68;29.92
34197;BME280;36594;45.192;5.722;2022-07-19T00:23:40;99276.05;;;32.65;29.94
34197;BME280;36594;45.192;5.722;2022-07-19T00:26:29;99276.83;;;32.68;29.96
34197;BME280;36594;45.192;5.722;2022-07-19T00:29:18;99265.98;;;32.69;30.04
34197;BME280;36594;45.192;5.722;2022-07-19T00:32:07;99275.71;;;32.69;29.98
34197;BME280;36594;45.192;5.722;2022-07-19T00:34:56;99279.34;;;32.67;30.02
34197;BME280;36594;45.192;5.722;2022-07-19T00:37:44;99279.09;;;32.66;30.05
34197;BME280;36594;45.192;5.722;2022-07-19T00:40:33;99276.05;;;32.65;30.04
34197;BME280;36594;45.192;5.722;2022-07-19T00:43:22;99270.80;;;32.64;30.05
34197;BME280;36594;45.192;5.722;2022-07-19T00:46:15;99276.41;;;32.61;30.09
34197;BME280;36594;45.192;5.722;2022-07-19T00:49:04;99272.08;;;32.55;30.18
34197;BME280;36594;45.192;5.722;2022-07-19T00:51:53;99277.41;;;32.52;30.24
34197;BME280;36594;45.192;5.722;2022-07-19T00:54:45;99281.86;;;32.53;30.28
34197;BME280;36594;45.192;5.722;2022-07-19T00:57:35;99280.71;;;32.54;30.29
34197;BME280;36594;45.192;5.722;2022-07-19T01:00:27;99277.93;;;32.54;30.33
34197;BME280;36594;45.192;5.722;2022-07-19T01:03:17;99282.42;;;32.52;30.38
34197;BME280;36594;45.192;5.722;2022-07-19T01:06:07;99274.64;;;32.52;30.42
34197;BME280;36594;45.192;5.722;2022-07-19T01:08:57;99280.23;;;32.49;30.42
34197;BME280;36594;45.192;5.722;2022-07-19T01:11:45;99289.69;;;32.51;30.42
34197;BME280;36594;45.192;5.722;2022-07-19T01:14:34;99280.52;;;32.50;30.42
34197;BME280;36594;45.192;5.722;2022-07-19T01:17:25;99283.02;;;32.49;30.41
34197;BME280;36594;45.192;5.722;2022-07-19T01:20:14;99282.98;;;32.52;30.41
34197;BME280;36594;45.192;5.722;2022-07-19T01:23:03;99284.13;;;32.51;30.41
34197;BME280;36594;45.192;5.722;2022-07-19T01:25:51;99288.86;;;32.50;30.41
34197;BME280;36594;45.192;5.722;2022-07-19T01:28:40;99279.45;;;32.46;30.50
34197;BME280;36594;45.192;5.722;2022-07-19T01:31:28;99287.00;;;32.43;30.54
34197;BME280;36594;45.192;5.722;2022-07-19T01:34:17;99285.57;;;32.46;30.56
34197;BME280;36594;45.192;5.722;2022-07-19T01:37:05;99285.57;;;32.46;30.56
34197;BME280;36594;45.192;5.722;2022-07-19T01:39:54;99285.57;;;32.46;30.56
34197;BME280;36594;45.192;5.722;2022-07-19T01:42:45;99286.13;;;32.45;30.57
34197;BME280;36594;45.192;5.722;2022-07-19T01:45:34;99292.52;;;32.46;30.52
34197;BME280;36594;45.192;5.722;2022-07-19T01:48:22;99290.62;;;32.44;30.52
34197;BME280;36594;45.192;5.722;2022-07-19T01:51:11;99289.83;;;32.41;30.48
34197;BME280;36594;45.192;5.722;2022-07-19T01:53:59;99292.65;;;32.38;30.48
34197;BME280;36594;45.192;5.722;2022-07-19T01:56:48;99288.80;;;32.37;30.43
34197;BME280;36594;45.192;5.722;2022-07-19T01:59:37;99293.20;;;32.38;30.42
34197;BME280;36594;45.192;5.722;2022-07-19T02:02:25;99292.37;;;32.37;30.38
34197;BME280;36594;45.192;5.722;2022-07-19T02:05:14;99287.17;;;32.33;30.41
34197;BME280;36594;45.192;5.722;2022-07-19T02:08:03;99289.39;;;32.34;30.36
34197;BME280;36594;45.192;5.722;2022-07-19T02:10:51;99287.96;;;32.36;30.35
34197;BME280;36594;45.192;5.722;2022-07-19T02:13:40;99286.61;;;32.34;30.40
34197;BME280;36594;45.192;5.722;2022-07-19T02:16:28;99283.27;;;32.34;30.42
34197;BME280;36594;45.192;5.722;2022-07-19T02:19:17;99285.50;;;32.35;30.39
34197;BME280;36594;45.192;5.722;2022-07-19T02:22:06;99283.00;;;32.33;30.41
34197;BME280;36594;45.192;5.722;2022-07-19T02:24:54;99277.75;;;32.32;30.43
34197;BME280;36594;45.192;5.722;2022-07-19T02:27:42;99282.20;;;32.30;30.43
34197;BME280;36594;45.192;5.722;2022-07-19T02:30:31;99283.05;;;32.31;30.42
34197;BME280;36594;45.192;5.722;2022-07-19T02:33:19;99281.92;;;32.32;30.43
34197;BME280;36594;45.192;5.722;2022-07-19T02:36:08;99280.22;;;32.33;30.39
34197;BME280;36594;45.192;5.722;2022-07-19T02:38:56;99287.17;;;32.33;30.40
34197;BME280;36594;45.192;5.722;2022-07-19T02:41:46;99281.92;;;32.32;30.37
34197;BME280;36594;45.192;5.722;2022-07-19T02:44:34;99279.74;;;32.29;30.34
34197;BME280;36594;45.192;5.722;2022-07-19T02:47:22;99278.67;;;32.27;30.39
34197;BME280;36594;45.192;5.722;2022-07-19T02:50:11;99278.39;;;32.26;30.38
34197;BME280;36594;45.192;5.722;2022-07-19T02:53:01;99277.28;;;32.27;30.36
34197;BME280;36594;45.192;5.722;2022-07-19T02:55:49;99291.22;;;32.25;30.37
34197;BME280;36594;45.192;5.722;2022-07-19T02:58:38;99288.44;;;32.25;30.31
34197;BME280;36594;45.192;5.722;2022-07-19T03:01:26;99290.11;;;32.23;30.32
34197;BME280;36594;45.192;5.722;2022-07-19T03:04:16;99287.61;;;32.24;30.28
34197;BME280;36594;45.192;5.722;2022-07-19T03:07:05;99294.55;;;32.24;30.32
34197;BME280;36594;45.192;5.722;2022-07-19T03:09:53;99294.28;;;32.23;30.33
34197;BME280;36594;45.192;5.722;2022-07-19T03:12:42;99297.38;;;32.22;30.33
34197;BME280;36594;45.192;5.722;2022-07-19T03:15:31;99295.98;;;32.22;30.37
34197;BME280;36594;45.192;5.722;2022-07-19T03:18:20;99298.73;;;32.24;30.36
34197;BME280;36594;45.192;5.722;2022-07-19T03:21:08;99295.08;;;32.26;30.27
34197;BME280;36594;45.192;5.722;2022-07-19T03:23:56;99300.35;;;32.28;30.23
34197;BME280;36594;45.192;5.722;2022-07-19T03:26:45;99297.26;;;32.29;30.14
34197;BME280;36594;45.192;5.722;2022-07-19T03:29:34;99300.23;;;32.33;30.03
34197;BME280;36594;45.192;5.722;2022-07-19T03:32:22;99300.83;;;32.32;29.96
34197;BME280;36594;45.192;5.722;2022-07-19T03:35:10;99303.13;;;32.28;29.93
34197;BME280;36594;45.192;5.722;2022-07-19T03:37:59;99303.94;;;32.28;29.87
34197;BME280;36594;45.192;5.722;2022-07-19T03:40:47;99309.97;;;32.33;29.78
34197;BME280;36594;45.192;5.722;2022-07-19T03:43:38;99308.06;;;32.31;29.71
34197;BME280;36594;45.192;5.722;2022-07-19T03:46:26;99303.65;;;32.30;29.72
34197;BME280;36594;45.192;5.722;2022-07-19T03:49:16;99312.79;;;32.30;29.67
34197;BME280;36594;45.192;5.722;2022-07-19T03:52:05;99309.29;;;32.25;29.65
34197;BME280;36594;45.192;5.722;2022-07-19T03:54:53;99306.27;;;32.21;29.68
34197;BME280;36594;45.192;5.722;2022-07-19T03:57:42;99318.78;;;32.21;29.65
34197;BME280;36594;45.192;5.722;2022-07-19T04:00:31;99312.42;;;32.21;29.63
34197;BME280;36594;45.192;5.722;2022-07-19T04:03:20;99310.96;;;32.23;29.56
34197;BME280;36594;45.192;5.722;2022-07-19T04:06:11;99315.92;;;32.26;29.44
34197;BME280;36594;45.192;5.722;2022-07-19T04:08:59;99319.85;;;32.25;29.32
34197;BME280;36594;45.192;5.722;2022-07-19T04:11:48;99320.97;;;32.24;29.25
34197;BME280;36594;45.192;5.722;2022-07-19T04:14:37;99316.23;;;32.25;29.11
34197;BME280;36594;45.192;5.722;2022-07-19T04:17:25;99322.36;;;32.24;29.07
34197;BME280;36594;45.192;5.722;2022-07-19T04:20:13;99328.47;;;32.24;29.02
34197;BME280;36594;45.192;5.722;2022-07-19T04:23:02;99327.12;;;32.21;29.06
34197;BME280;36594;45.192;5.722;2022-07-19T04:25:51;99333.55;;;32.19;29.09
34197;BME280;36594;45.192;5.722;2022-07-19T04:28:39;99333.90;;;32.15;29.00
34197;BME280;36594;45.192;5.722;2022-07-19T04:31:27;99332.83;;;32.14;28.94
34197;BME280;36594;45.192;5.722;2022-07-19T04:34:15;99333.14;;;32.09;28.84
34197;BME280;36594;45.192;5.722;2022-07-19T04:37:04;99338.84;;;32.02;28.92
34197;BME280;36594;45.192;5.722;2022-07-19T04:39:52;99337.04;;;31.90;29.07
34197;BME280;36594;45.192;5.722;2022-07-19T04:42:41;99338.25;;;31.81;29.27
34197;BME280;36594;45.192;5.722;2022-07-19T04:45:29;99335.05;;;31.72;29.50
34197;BME280;36594;45.192;5.722;2022-07-19T04:48:18;99337.96;;;31.64;29.57
34197;BME280;36594;45.192;5.722;2022-07-19T04:51:07;99341.11;;;31.58;29.68
34197;BME280;36594;45.192;5.722;2022-07-19T04:53:55;99342.87;;;31.49;29.87
34197;BME280;36594;45.192;5.722;2022-07-19T04:56:43;99335.43;;;31.41;30.08
34197;BME280;36594;45.192;5.722;2022-07-19T04:59:32;99343.02;;;31.36;30.22
34197;BME280;36594;45.192;5.722;2022-07-19T05:02:20;99348.02;;;31.36;30.15
34197;BME280;36594;45.192;5.722;2022-07-19T05:05:09;99348.06;;;31.31;30.04
34197;BME280;36594;45.192;5.722;2022-07-19T05:07:57;99353.06;;;31.32;29.98
34197;BME280;36594;45.192;5.722;2022-07-19T05:10:46;99354.56;;;31.22;29.88
34197;BME280;36594;45.192;5.722;2022-07-19T05:13:34;99353.75;;;31.19;29.81
34197;BME280;36594;45.192;5.722;2022-07-19T05:16:22;99357.42;;;31.14;29.78
34197;BME280;36594;45.192;5.722;2022-07-19T05:19:11;99352.72;;;31.12;29.76
34197;BME280;36594;45.192;5.722;2022-07-19T05:22:00;99353.59;;;31.10;29.78
34197;BME280;36594;45.192;5.722;2022-07-19T05:24:48;99360.72;;;31.16;29.80
34197;BME280;36594;45.192;5.722;2022-07-19T05:27:37;99358.75;;;31.19;29.74
34197;BME280;36594;45.192;5.722;2022-07-19T05:30:26;99360.45;;;31.18;29.56
34197;BME280;36594;45.192;5.722;2022-07-19T05:33:14;99360.77;;;31.11;29.50
34197;BME280;36594;45.192;5.722;2022-07-19T05:36:06;99356.89;;;31.12;29.55
34197;BME280;36594;45.192;5.722;2022-07-19T05:38:56;99362.16;;;31.11;29.56
34197;BME280;36594;45.192;5.722;2022-07-19T05:41:45;99360.45;;;31.18;29.62
34197;BME280;36594;45.192;5.722;2022-07-19T05:44:33;99356.55;;;31.16;29.97
34197;BME280;36594;45.192;5.722;2022-07-19T05:47:21;99355.72;;;31.16;29.87
34197;BME280;36594;45.192;5.722;2022-07-19T05:50:10;99356.28;;;31.18;29.83
34197;BME280;36594;45.192;5.722;2022-07-19T05:52:58;99353.78;;;31.16;29.74
34197;BME280;36594;45.192;5.722;2022-07-19T05:55:46;99355.50;;;31.12;29.62
34197;BME280;36594;45.192;5.722;2022-07-19T05:58:35;99358.86;;;31.09;29.57
34197;BME280;36594;45.192;5.722;2022-07-19T06:01:24;99360.52;;;31.10;29.56
34197;BME280;36594;45.192;5.722;2022-07-19T06:04:13;99360.19;;;31.14;29.56
34197;BME280;36594;45.192;5.722;2022-07-19T06:07:01;99360.77;;;31.11;29.58
34197;BME280;36594;45.192;5.722;2022-07-19T06:09:49;99360.58;;;31.05;29.63
34197;BME280;36594;45.192;5.722;2022-07-19T06:12:37;99368.03;;;31.07;29.67
34197;BME280;36594;45.192;5.722;2022-07-19T06:15:26;99364.78;;;31.00;29.78
34197;BME280;36594;45.192;5.722;2022-07-19T06:18:14;99358.98;;;30.99;29.86
34197;BME280;36594;45.192;5.722;2022-07-19T06:21:06;99362.44;;;31.12;29.79
34197;BME280;36594;45.192;5.722;2022-07-19T06:23:54;99363.75;;;31.20;29.81
34197;BME280;36594;45.192;5.722;2022-07-19T06:26:43;99359.56;;;31.22;29.91
34197;BME280;36594;45.192;5.722;2022-07-19T06:29:31;99357.84;;;31.26;29.96
34197;BME280;36594;45.192;5.722;2022-07-19T06:32:19;99356.39;;;31.31;30.00
34197;BME280;36594;45.192;5.722;2022-07-19T06:35:08;99352.45;;;31.35;30.10
34197;BME280;36594;45.192;5.722;2022-07-19T06:37:57;99355.17;;;31.40;30.14
34197;BME280;36594;45.192;5.722;2022-07-19T06:40:45;99352.37;;;31.45;30.17
34197;BME280;36594;45.192;5.722;2022-07-19T06:43:34;99351.20;;;31.49;30.23
34197;BME280;36594;45.192;5.722;2022-07-19T06:46:23;99353.39;;;31.52;30.26
34197;BME280;36594;45.192;5.722;2022-07-19T06:49:11;99355.30;;;31.54;30.37
34197;BME280;36594;45.192;5.722;2022-07-19T06:52:00;99348.30;;;31.59;30.37
34197;BME280;36594;45.192;5.722;2022-07-19T06:54:48;99346.08;;;31.58;30.46
34197;BME280;36594;45.192;5.722;2022-07-19T06:57:37;99342.72;;;31.61;30.48
34197;BME280;36594;45.192;5.722;2022-07-19T07:00:25;99339.94;;;31.61;30.56
34197;BME280;36594;45.192;5.722;2022-07-19T07:03:13;99338.52;;;31.64;30.60
34197;BME280;36594;45.192;5.722;2022-07-19T07:06:01;99340.42;;;31.66;30.63
34197;BME280;36594;45.192;5.722;2022-07-19T07:08:50;99335.64;;;31.71;30.65
34197;BME280;36594;45.192;5.722;2022-07-19T07:11:39;99329.50;;;31.72;30.66
34197;BME280;36594;45.192;5.722;2022-07-19T07:14:27;99329.50;;;31.72;30.67
34197;BME280;36594;45.192;5.722;2022-07-19T07:17:16;99331.72;;;31.72;30.74
34197;BME280;36594;45.192;5.722;2022-07-19T07:20:05;99337.59;;;31.71;30.74
34197;BME280;36594;45.192;5.722;2022-07-19T07:22:54;99331.72;;;31.72;30.77
34197;BME280;36594;45.192;5.722;2022-07-19T07:25:42;99333.08;;;31.75;30.78
34197;BME280;36594;45.192;5.722;2022-07-19T07:28:31;99330.27;;;31.77;30.73
34197;BME280;36594;45.192;5.722;2022-07-19T07:31:19;99325.27;;;31.77;30.78
34197;BME280;36594;45.192;5.722;2022-07-19T07:34:07;99329.71;;;31.78;30.81
34197;BME280;36594;45.192;5.722;2022-07-19T07:36:56;99325.79;;;31.79;30.88
34197;BME280;36594;45.192;5.722;2022-07-19T07:39:44;99323.77;;;31.84;30.89
34197;BME280;36594;45.192;5.722;2022-07-19T07:42:33;99322.91;;;31.86;30.90
34197;BME280;36594;45.192;5.722;2022-07-19T07:45:21;99322.87;;;31.89;30.92
34197;BME280;36594;45.192;5.722;2022-07-19T07:48:10;99319.53;;;31.89;30.94
34197;BME280;36594;45.192;5.722;2022-07-19T07:50:58;99316.76;;;31.89;31.02
34197;BME280;36594;45.192;5.722;2022-07-19T07:53:46;99312.03;;;31.90;31.02
34197;BME280;36594;45.192;5.722;2022-07-19T07:56:34;99308.39;;;31.92;31.07
34197;BME280;36594;45.192;5.722;2022-07-19T07:59:23;99303.91;;;31.93;31.08
34197;BME280;36594;45.192;5.722;2022-07-19T08:02:11;99298.66;;;31.92;31.15
34197;BME280;36594;45.192;5.722;2022-07-19T08:04:59;99294.50;;;31.92;31.15
34197;BME280;36594;45.192;5.722;2022-07-19T08:07:47;99285.88;;;31.91;31.25
34197;BME280;36594;45.192;5.722;2022-07-19T08:10:36;99285.13;;;31.88;31.32
34197;BME280;36594;45.192;5.722;2022-07-19T08:13:25;99282.55;;;31.91;31.33
34197;BME280;36594;45.192;5.722;2022-07-19T08:16:13;99274.77;;;31.91;31.41
34197;BME280;36594;45.192;5.722;2022-07-19T08:19:01;99272.27;;;31.92;31.51
34197;BME280;36594;45.192;5.722;2022-07-19T08:21:51;99265.01;;;31.93;31.51
34197;BME280;36594;45.192;5.722;2022-07-19T08:24:40;99268.61;;;31.96;31.48
34197;BME280;36594;45.192;5.722;2022-07-19T08:27:28;99267.47;;;31.97;31.48
34197;BME280;36594;45.192;5.722;2022-07-19T08:30:17;99258.06;;;31.93;31.51
34197;BME280;36594;45.192;5.722;2022-07-19T08:33:05;99257.98;;;32.01;31.53
34197;BME280;36594;45.192;5.722;2022-07-19T08:35:55;99252.70;;;32.02;31.54
34197;BME280;36594;45.192;5.722;2022-07-19T08:38:44;99253.81;;;32.01;31.56
34197;BME280;36594;45.192;5.722;2022-07-19T08:41:33;99241.31;;;32.01;31.57
34197;BME280;36594;45.192;5.722;2022-07-19T08:44:22;99240.95;;;32.05;31.56
34197;BME280;36594;45.192;5.722;2022-07-19T08:47:10;99239.52;;;32.07;31.54
34197;BME280;36594;45.192;5.722;2022-07-19T08:50:00;99235.91;;;32.07;31.58
34197;BME280;36594;45.192;5.722;2022-07-19T08:52:48;99231.74;;;32.07;31.57
34197;BME280;36594;45.192;5.722;2022-07-19T08:55:37;99234.48;;;32.09;31.56
34197;BME280;36594;45.192;5.722;2022-07-19T08:58:26;99233.36;;;32.11;31.58
34197;BME280;36594;45.192;5.722;2022-07-19T09:01:14;99233.09;;;32.09;31.61
34197;BME280;36594;45.192;5.722;2022-07-19T09:04:05;99225.86;;;32.11;31.62
34197;BME280;36594;45.192;5.722;2022-07-19T09:06:55;99223.13;;;32.08;31.67
34197;BME280;36594;45.192;5.722;2022-07-19T09:09:44;99221.17;;;32.09;31.71
34197;BME280;36594;45.192;5.722;2022-07-19T09:12:32;99215.30;;;32.11;31.75
34197;BME280;36594;45.192;5.722;2022-07-19T09:15:21;99208.39;;;32.08;31.81
34197;BME280;36594;45.192;5.722;2022-07-19T09:21:10;99209.19;;;32.11;31.86
34197;BME280;36594;45.192;5.722;2022-07-19T09:23:58;99206.69;;;32.09;31.97
34197;BME280;36594;45.192;5.722;2022-07-19T09:27:00;99203.91;;;32.09;31.96
34197;BME280;36594;45.192;5.722;2022-07-19T09:29:56;99203.11;;;32.09;31.99
34197;BME280;36594;45.192;5.722;2022-07-19T09:32:40;99201.45;;;32.08;32.05
34197;BME280;36594;45.192;5.722;2022-07-19T09:35:37;99201.17;;;32.07;32.09
34197;BME280;36594;45.192;5.722;2022-07-19T09:38:36;99197.80;;;32.10;32.07
34197;BME280;36594;45.192;5.722;2022-07-19T09:41:25;99198.39;;;32.07;32.15
34197;BME280;36594;45.192;5.722;2022-07-19T09:44:21;99196.97;;;32.09;32.12
34197;BME280;36594;45.192;5.722;2022-07-19T09:47:04;99188.58;;;32.12;32.10
34197;BME280;36594;45.192;5.722;2022-07-19T09:49:53;99182.47;;;32.13;32.07
34197;BME280;36594;45.192;5.722;2022-07-19T09:52:43;99183.30;;;32.13;32.11
34197;BME280;36594;45.192;5.722;2022-07-19T09:55:32;99176.35;;;32.13;32.14
34197;BME280;36594;45.192;5.722;2022-07-19T09:58:21;99174.41;;;32.14;32.17
34197;BME280;36594;45.192;5.722;2022-07-19T10:01:10;99161.89;;;32.14;32.20
34197;BME280;36594;45.192;5.722;2022-07-19T10:04:07;99164.59;;;32.16;32.17
34197;BME280;36594;45.192;5.722;2022-07-19T10:06:51;99155.14;;;32.17;32.15
34197;BME280;36594;45.192;5.722;2022-07-19T10:09:41;99160.66;;;32.20;32.10
34197;BME280;36594;45.192;5.722;2022-07-19T10:12:31;99148.70;;;32.19;32.16
34197;BME280;36594;45.192;5.722;2022-07-19T10:15:20;99151.76;;;32.20;32.09
34197;BME280;36594;45.192;5.722;2022-07-19T10:18:14;99145.41;;;32.17;32.18
34197;BME280;36594;45.192;5.722;2022-07-19T10:21:03;99133.73;;;32.18;32.19
34197;BME280;36594;45.192;5.722;2022-07-19T10:23:53;99130.64;;;32.19;32.19
34197;BME280;36594;45.192;5.722;2022-07-19T10:26:42;99133.42;;;32.19;32.19
34197;BME280;36594;45.192;5.722;2022-07-19T10:29:31;99126.47;;;32.19;32.19
34197;BME280;36594;45.192;5.722;2022-07-19T10:32:21;99123.97;;;32.20;32.19
34197;BME280;36594;45.192;5.722;2022-07-19T10:38:12;99117.25;;;32.21;32.22
34197;BME280;36594;45.192;5.722;2022-07-19T10:41:00;99107.02;;;32.19;32.28
34197;BME280;36594;45.192;5.722;2022-07-19T10:44:06;99105.34;;;32.21;32.34
34197;BME280;36594;45.192;5.722;2022-07-19T10:46:33;99102.19;;;32.11;32.42
34197;BME280;36594;45.192;5.722;2022-07-19T10:49:46;99096.77;;;32.03;32.58
34197;BME280;36594;45.192;5.722;2022-07-19T10:52:37;99091.86;;;31.98;32.78
34197;BME280;36594;45.192;5.722;2022-07-19T10:55:26;99090.06;;;31.88;32.95
34197;BME280;36594;45.192;5.722;2022-07-19T10:58:15;99084.81;;;31.87;33.02
34197;BME280;36594;45.192;5.722;2022-07-19T11:01:14;99074.78;;;31.88;33.06
34197;BME280;36594;45.192;5.722;2022-07-19T11:07:12;99066.76;;;31.87;33.08
34197;BME280;36594;45.192;5.722;2022-07-19T11:10:01;99065.17;;;31.83;33.14
34197;BME280;36594;45.192;5.722;2022-07-19T11:12:52;99053.47;;;31.84;33.18
34197;BME280;36594;45.192;5.722;2022-07-19T11:15:41;99054.30;;;31.84;33.25
34197;BME280;36594;45.192;5.722;2022-07-19T11:18:32;99049.89;;;31.83;33.36
34197;BME280;36594;45.192;5.722;2022-07-19T11:21:21;99039.34;;;31.83;33.43
34197;BME280;36594;45.192;5.722;2022-07-19T11:24:09;99037.91;;;31.85;33.41
34197;BME280;36594;45.192;5.722;2022-07-19T11:26:59;99038.66;;;31.88;33.48
34197;BME280;36594;45.192;5.722;2022-07-19T11:29:54;99031.48;;;31.87;33.52
34197;BME280;36594;45.192;5.722;2022-07-19T11:32:42;99025.09;;;31.87;33.54
34197;BME280;36594;45.192;5.722;2022-07-19T11:35:32;99013.93;;;31.89;33.62
34197;BME280;36594;45.192;5.722;2022-07-19T11:38:21;99001.98;;;31.89;33.64
34197;BME280;36594;45.192;5.722;2022-07-19T11:41:23;99000.91;;;31.87;33.71
34197;BME280;36594;45.192;5.722;2022-07-19T11:44:08;99000.36;;;31.88;33.74
34197;BME280;36594;45.192;5.722;2022-07-19T11:46:57;98992.58;;;31.87;33.82
34197;BME280;36594;45.192;5.722;2022-07-19T11:49:45;98991.44;;;31.88;33.86
34197;BME280;36594;45.192;5.722;2022-07-19T11:52:57;98990.05;;;31.88;33.92
34197;BME280;36594;45.192;5.722;2022-07-19T11:55:46;98987.22;;;31.91;33.91
34197;BME280;36594;45.192;5.722;2022-07-19T11:58:36;98974.81;;;31.86;33.98
34197;BME280;36594;45.192;5.722;2022-07-19T12:01:28;98970.04;;;31.89;33.93
34197;BME280;36594;45.192;5.722;2022-07-19T12:04:17;98976.94;;;31.91;33.90
34197;BME280;36594;45.192;5.722;2022-07-19T12:07:05;98972.45;;;31.93;33.87
34197;BME280;36594;45.192;5.722;2022-07-19T12:09:54;98971.33;;;31.94;33.88
34197;BME280;36594;45.192;5.722;2022-07-19T12:12:43;98964.94;;;31.93;33.89
34197;BME280;36594;45.192;5.722;2022-07-19T12:15:52;98957.42;;;31.96;33.84
34197;BME280;36594;45.192;5.722;2022-07-19T12:18:56;98959.66;;;31.94;33.85
34197;BME280;36594;45.192;5.722;2022-07-19T12:21:45;98950.49;;;31.94;33.89
34197;BME280;36594;45.192;5.722;2022-07-19T12:24:42;98952.44;;;31.93;33.93
34197;BME280;36594;45.192;5.722;2022-07-19T12:27:24;98944.38;;;31.94;33.90
34197;BME280;36594;45.192;5.722;2022-07-19T12:30:18;98929.63;;;31.96;33.87
34197;BME280;36594;45.192;5.722;2022-07-19T12:33:12;98933.48;;;31.98;33.86
34197;BME280;36594;45.192;5.722;2022-07-19T12:36:01;98923.75;;;31.98;33.93
34197;BME280;36594;45.192;5.722;2022-07-19T12:38:50;98924.03;;;31.99;33.88
34197;BME280;36594;45.192;5.722;2022-07-19T12:41:38;98928.44;;;32.00;33.85
34197;BME280;36594;45.192;5.722;2022-07-19T12:44:27;98918.15;;;32.00;33.85
34197;BME280;36594;45.192;5.722;2022-07-19T12:47:16;98912.86;;;32.01;33.85
34197;BME280;36594;45.192;5.722;2022-07-19T12:50:06;98908.75;;;31.99;33.85
34197;BME280;36594;45.192;5.722;2022-07-19T12:52:57;98914.76;;;32.03;33.86
34197;BME280;36594;45.192;5.722;2022-07-19T12:55:47;98916.97;;;32.04;33.86
34197;BME280;36594;45.192;5.722;2022-07-19T12:58:36;98916.38;;;32.04;33.84
34197;BME280;36594;45.192;5.722;2022-07-19T13:01:42;98912.16;;;32.07;33.85
34197;BME280;36594;45.192;5.722;2022-07-19T13:04:30;98905.59;;;32.03;33.91
34197;BME280;36594;45.192;5.722;2022-07-19T13:07:19;98915.59;;;32.04;33.93
34197;BME280;36594;45.192;5.722;2022-07-19T13:10:08;98914.94;;;32.07;33.91
34197;BME280;36594;45.192;5.722;2022-07-19T13:12:57;98898.27;;;32.07;33.90
34197;BME280;36594;45.192;5.722;2022-07-19T13:15:45;98905.48;;;32.08;33.89
34197;BME280;36594;45.192;5.722;2022-07-19T13:18:34;98895.25;;;32.06;33.94
34197;BME280;36594;45.192;5.722;2022-07-19T13:21:22;98897.70;;;32.07;33.95
34197;BME280;36594;45.192;5.722;2022-07-19T13:24:11;98899.42;;;32.06;33.99
34197;BME280;36594;45.192;5.722;2022-07-19T13:26:59;98891.59;;;32.08;33.98
34197;BME280;36594;45.192;5.722;2022-07-19T13:29:48;98889.08;;;32.09;33.97
34197;BME280;36594;45.192;5.722;2022-07-19T13:32:36;98889.08;;;32.09;33.97
34197;BME280;36594;45.192;5.722;2022-07-19T13:35:25;98895.76;;;32.08;33.99
34197;BME280;36594;45.192;5.722;2022-07-19T13:38:14;98892.98;;;32.08;34.00
34197;BME280;36594;45.192;5.722;2022-07-19T13:41:02;98892.09;;;32.10;33.99
34197;BME280;36594;45.192;5.722;2022-07-19T13:43:50;98885.15;;;32.10;34.02
34197;BME280;36594;45.192;5.722;2022-07-19T13:46:40;98887.37;;;32.11;34.05
34197;BME280;36594;45.192;5.722;2022-07-19T13:49:28;98889.00;;;32.12;34.02
34197;BME280;36594;45.192;5.722;2022-07-19T13:52:16;98879.86;;;32.11;34.06
34197;BME280;36594;45.192;5.722;2022-07-19T13:55:06;98873.20;;;32.09;34.07
34197;BME280;36594;45.192;5.722;2022-07-19T13:57:54;98860.64;;;32.12;34.06
34197;BME280;36594;45.192;5.722;2022-07-19T14:00:43;98873.98;;;32.13;34.09
34197;BME280;36594;45.192;5.722;2022-07-19T14:03:33;98859.25;;;32.12;34.07
34197;BME280;36594;45.192;5.722;2022-07-19T14:06:22;98860.91;;;32.13;34.09
34197;BME280;36594;45.192;5.722;2022-07-19T14:09:12;98856.74;;;32.13;34.04
34197;BME280;36594;45.192;5.722;2022-07-19T14:12:00;98856.98;;;32.14;34.05
34197;BME280;36594;45.192;5.722;2022-07-19T14:14:49;98861.98;;;32.15;34.09
34197;BME280;36594;45.192;5.722;2022-07-19T14:17:37;98862.53;;;32.14;34.12
34197;BME280;36594;45.192;5.722;2022-07-19T14:20:26;98863.13;;;32.14;34.11
34197;BME280;36594;45.192;5.722;2022-07-19T14:23:15;98871.33;;;32.19;34.13
34197;BME280;36594;45.192;5.722;2022-07-19T14:26:04;98876.48;;;32.25;33.98
34197;BME280;36594;45.192;5.722;2022-07-19T14:28:53;98885.15;;;32.35;33.92
34197;BME280;36594;45.192;5.722;2022-07-19T14:31:41;98891.16;;;32.39;33.87
34197;BME280;36594;45.192;5.722;2022-07-19T14:34:30;98874.92;;;32.44;33.85
34197;BME280;36594;45.192;5.722;2022-07-19T14:37:19;98874.86;;;32.46;33.82
34197;BME280;36594;45.192;5.722;2022-07-19T14:40:08;98870.57;;;32.51;33.76
34197;BME280;36594;45.192;5.722;2022-07-19T14:42:57;98861.11;;;32.52;33.73
34197;BME280;36594;45.192;5.722;2022-07-19T14:45:45;98858.27;;;32.55;33.75
34197;BME280;36594;45.192;5.722;2022-07-19T14:48:34;98852.94;;;32.56;33.69
34197;BME280;36594;45.192;5.722;2022-07-19T14:51:22;98852.14;;;32.55;33.64
34197;BME280;36594;45.192;5.722;2022-07-19T14:54:11;98846.58;;;32.55;33.66
34197;BME280;36594;45.192;5.722;2022-07-19T14:56:59;98849.03;;;32.57;33.69
34197;BME280;36594;45.192;5.722;2022-07-19T14:59:48;98847.91;;;32.58;33.73
34197;BME280;36594;45.192;5.722;2022-07-19T15:02:36;98853.14;;;32.59;33.74
34197;BME280;36594;45.192;5.722;2022-07-19T15:05:25;98858.50;;;32.56;33.77